sensor_id;sensor_type;location;lat;lon;timestamp;P1;durP1;ratioP1;P2;durP2;ratioP2
15312;SDS011;7757;52.626;4.746;2023-07-31T00:01:10;7.50;;;1.35;;
15312;SDS011;7757;52.626;4.746;2023-07-31T00:03:35;8.77;;;1.33;;
15312;SDS011;7757;52.626;4.746;2023-07-31T00:06:02;11.32;;;1.60;;
15312;SDS011;7757;52.626;4.746;2023-07-31T00:08:29;8.95;;;1.40;;
15312;SDS011;7757;52.626;4.746;2023-07-31T00:10:54;8.88;;;1.30;;
15312;SDS011;7757;52.626;4.746;2023-07-31T00:13:19;6.20;;;1.20;;
15312;SDS011;7757;52.626;4.746;2023-07-31T00:15:45;5.07;;;1.02;;
15312;SDS011;7757;52.626;4.746;2023-07-31T00:18:10;8.38;;;1.30;;
15312;SDS011;7757;52.626;4.746;2023-07-31T00:20:36;7.95;;;1.38;;
15312;SDS011;7757;52.626;4.746;2023-07-31T00:23:01;10.93;;;1.60;;
15312;SDS011;7757;52.626;4.746;2023-07-31T00:25:28;7.20;;;1.27;;
15312;SDS011;7757;52.626;4.746;2023-07-31T00:27:53;10.93;;;1.90;;
15312;SDS011;7757;52.626;4.746;2023-07-31T00:30:18;9.48;;;1.65;;
15312;SDS011;7757;52.626;4.746;2023-07-31T00:32:44;11.52;;;1.40;;
15312;SDS011;7757;52.626;4.746;2023-07-31T00:35:11;8.88;;;1.58;;
15312;SDS011;7757;52.626;4.746;2023-07-31T00:37:38;14.93;;;2.10;;
15312;SDS011;7757;52.626;4.746;2023-07-31T00:40:04;13.30;;;2.17;;
15312;SDS011;7757;52.626;4.746;2023-07-31T00:42:31;11.82;;;1.90;;
15312;SDS011;7757;52.626;4.746;2023-07-31T00:44:56;9.95;;;2.35;;
15312;SDS011;7757;52.626;4.746;2023-07-31T00:47:22;11.25;;;2.22;;
15312;SDS011;7757;52.626;4.746;2023-07-31T00:49:47;10.45;;;2.10;;
15312;SDS011;7757;52.626;4.746;2023-07-31T00:52:14;11.27;;;2.22;;
15312;SDS011;7757;52.626;4.746;2023-07-31T00:54:39;9.95;;;1.92;;
15312;SDS011;7757;52.626;4.746;2023-07-31T00:57:06;14.02;;;2.20;;
15312;SDS011;7757;52.626;4.746;2023-07-31T00:59:33;9.57;;;2.10;;
15312;SDS011;7757;52.626;4.746;2023-07-31T01:01:58;12.85;;;2.20;;
15312;SDS011;7757;52.626;4.746;2023-07-31T01:04:24;11.15;;;2.20;;
15312;SDS011;7757;52.626;4.746;2023-07-31T01:12:11;9.68;;;2.20;;
15312;SDS011;7757;52.626;4.746;2023-07-31T01:14:39;9.90;;;2.10;;
15312;SDS011;7757;52.626;4.746;2023-07-31T01:17:04;9.75;;;2.28;;
15312;SDS011;7757;52.626;4.746;2023-07-31T01:19:31;13.15;;;2.85;;
15312;SDS011;7757;52.626;4.746;2023-07-31T01:25:21;9.57;;;2.33;;
15312;SDS011;7757;52.626;4.746;2023-07-31T01:27:58;13.23;;;2.50;;
15312;SDS011;7757;52.626;4.746;2023-07-31T01:30:29;12.82;;;2.20;;
15312;SDS011;7757;52.626;4.746;2023-07-31T01:33:02;13.95;;;3.05;;
15312;SDS011;7757;52.626;4.746;2023-07-31T01:35:33;14.15;;;3.90;;
15312;SDS011;7757;52.626;4.746;2023-07-31T01:37:59;10.85;;;2.58;;
15312;SDS011;7757;52.626;4.746;2023-07-31T01:40:25;12.10;;;2.45;;
15312;SDS011;7757;52.626;4.746;2023-07-31T01:42:50;9.40;;;2.45;;
15312;SDS011;7757;52.626;4.746;2023-07-31T01:45:16;10.73;;;2.78;;
15312;SDS011;7757;52.626;4.746;2023-07-31T01:47:41;14.30;;;3.17;;
15312;SDS011;7757;52.626;4.746;2023-07-31T01:50:07;13.55;;;3.53;;
15312;SDS011;7757;52.626;4.746;2023-07-31T01:52:32;12.02;;;2.83;;
15312;SDS011;7757;52.626;4.746;2023-07-31T01:54:57;15.43;;;3.03;;
15312;SDS011;7757;52.626;4.746;2023-07-31T01:57:23;15.85;;;3.38;;
15312;SDS011;7757;52.626;4.746;2023-07-31T01:59:49;12.60;;;3.00;;
15312;SDS011;7757;52.626;4.746;2023-07-31T02:02:19;13.10;;;2.90;;
15312;SDS011;7757;52.626;4.746;2023-07-31T02:04:45;14.10;;;3.10;;
15312;SDS011;7757;52.626;4.746;2023-07-31T02:07:10;13.88;;;3.17;;
15312;SDS011;7757;52.626;4.746;2023-07-31T02:09:37;15.77;;;3.45;;
15312;SDS011;7757;52.626;4.746;2023-07-31T02:12:02;14.32;;;3.10;;
15312;SDS011;7757;52.626;4.746;2023-07-31T02:14:29;14.10;;;2.90;;
15312;SDS011;7757;52.626;4.746;2023-07-31T02:16:55;14.73;;;3.30;;
15312;SDS011;7757;52.626;4.746;2023-07-31T02:19:20;13.77;;;2.90;;
15312;SDS011;7757;52.626;4.746;2023-07-31T02:21:46;12.70;;;2.88;;
15312;SDS011;7757;52.626;4.746;2023-07-31T02:24:11;19.42;;;3.75;;
15312;SDS011;7757;52.626;4.746;2023-07-31T02:26:36;18.63;;;4.28;;
15312;SDS011;7757;52.626;4.746;2023-07-31T02:29:02;16.70;;;3.28;;
15312;SDS011;7757;52.626;4.746;2023-07-31T02:31:27;13.60;;;3.22;;
15312;SDS011;7757;52.626;4.746;2023-07-31T02:33:54;20.88;;;3.95;;
15312;SDS011;7757;52.626;4.746;2023-07-31T02:36:20;14.43;;;3.08;;
15312;SDS011;7757;52.626;4.746;2023-07-31T02:38:45;15.45;;;3.67;;
15312;SDS011;7757;52.626;4.746;2023-07-31T02:41:10;16.38;;;3.55;;
15312;SDS011;7757;52.626;4.746;2023-07-31T02:43:36;15.27;;;3.70;;
15312;SDS011;7757;52.626;4.746;2023-07-31T02:46:01;13.63;;;3.55;;
15312;SDS011;7757;52.626;4.746;2023-07-31T02:48:26;15.80;;;4.10;;
15312;SDS011;7757;52.626;4.746;2023-07-31T02:50:53;16.15;;;3.80;;
15312;SDS011;7757;52.626;4.746;2023-07-31T02:53:18;17.40;;;3.58;;
15312;SDS011;7757;52.626;4.746;2023-07-31T02:55:45;16.77;;;3.88;;
15312;SDS011;7757;52.626;4.746;2023-07-31T02:58:10;17.05;;;4.10;;
15312;SDS011;7757;52.626;4.746;2023-07-31T03:00:35;20.38;;;4.82;;
15312;SDS011;7757;52.626;4.746;2023-07-31T03:03:01;20.95;;;4.53;;
15312;SDS011;7757;52.626;4.746;2023-07-31T03:05:26;21.90;;;6.47;;
15312;SDS011;7757;52.626;4.746;2023-07-31T03:07:52;16.67;;;4.20;;
15312;SDS011;7757;52.626;4.746;2023-07-31T03:10:17;15.88;;;3.70;;
15312;SDS011;7757;52.626;4.746;2023-07-31T03:12:43;16.60;;;3.85;;
15312;SDS011;7757;52.626;4.746;2023-07-31T03:15:12;16.95;;;3.40;;
15312;SDS011;7757;52.626;4.746;2023-07-31T03:17:37;17.58;;;3.55;;
15312;SDS011;7757;52.626;4.746;2023-07-31T03:20:03;15.55;;;3.63;;
15312;SDS011;7757;52.626;4.746;2023-07-31T03:22:28;19.13;;;4.70;;
15312;SDS011;7757;52.626;4.746;2023-07-31T03:24:54;16.13;;;3.70;;
15312;SDS011;7757;52.626;4.746;2023-07-31T03:27:22;19.80;;;3.97;;
15312;SDS011;7757;52.626;4.746;2023-07-31T03:29:47;15.00;;;3.60;;
15312;SDS011;7757;52.626;4.746;2023-07-31T03:32:14;16.42;;;3.92;;
15312;SDS011;7757;52.626;4.746;2023-07-31T03:34:40;17.10;;;3.90;;
15312;SDS011;7757;52.626;4.746;2023-07-31T03:37:05;18.52;;;4.40;;
15312;SDS011;7757;52.626;4.746;2023-07-31T03:39:31;15.02;;;3.72;;
15312;SDS011;7757;52.626;4.746;2023-07-31T03:41:57;16.75;;;4.13;;
15312;SDS011;7757;52.626;4.746;2023-07-31T03:44:23;16.15;;;3.65;;
15312;SDS011;7757;52.626;4.746;2023-07-31T03:46:48;15.85;;;3.53;;
15312;SDS011;7757;52.626;4.746;2023-07-31T03:49:14;18.15;;;4.10;;
15312;SDS011;7757;52.626;4.746;2023-07-31T03:51:39;17.65;;;3.92;;
15312;SDS011;7757;52.626;4.746;2023-07-31T03:54:04;17.60;;;3.88;;
15312;SDS011;7757;52.626;4.746;2023-07-31T03:56:30;16.20;;;3.88;;
15312;SDS011;7757;52.626;4.746;2023-07-31T03:58:55;16.17;;;3.60;;
15312;SDS011;7757;52.626;4.746;2023-07-31T04:01:21;17.02;;;4.03;;
15312;SDS011;7757;52.626;4.746;2023-07-31T04:03:48;16.13;;;4.07;;
15312;SDS011;7757;52.626;4.746;2023-07-31T04:06:14;19.80;;;3.83;;
15312;SDS011;7757;52.626;4.746;2023-07-31T04:08:43;15.02;;;3.78;;
15312;SDS011;7757;52.626;4.746;2023-07-31T04:11:09;16.88;;;4.15;;
15312;SDS011;7757;52.626;4.746;2023-07-31T04:13:34;19.30;;;4.13;;
15312;SDS011;7757;52.626;4.746;2023-07-31T04:15:59;18.38;;;3.75;;
15312;SDS011;7757;52.626;4.746;2023-07-31T04:18:25;18.20;;;3.92;;
15312;SDS011;7757;52.626;4.746;2023-07-31T04:20:52;17.77;;;4.00;;
15312;SDS011;7757;52.626;4.746;2023-07-31T04:23:17;17.30;;;4.15;;
15312;SDS011;7757;52.626;4.746;2023-07-31T04:25:44;15.32;;;4.03;;
15312;SDS011;7757;52.626;4.746;2023-07-31T04:28:09;17.05;;;3.75;;
15312;SDS011;7757;52.626;4.746;2023-07-31T04:30:34;14.10;;;3.60;;
15312;SDS011;7757;52.626;4.746;2023-07-31T04:33:01;17.00;;;4.20;;
15312;SDS011;7757;52.626;4.746;2023-07-31T04:35:26;15.23;;;3.45;;
15312;SDS011;7757;52.626;4.746;2023-07-31T04:37:53;15.52;;;3.70;;
15312;SDS011;7757;52.626;4.746;2023-07-31T04:40:18;12.98;;;3.55;;
15312;SDS011;7757;52.626;4.746;2023-07-31T04:42:44;14.35;;;3.30;;
15312;SDS011;7757;52.626;4.746;2023-07-31T04:45:09;13.65;;;3.60;;
15312;SDS011;7757;52.626;4.746;2023-07-31T04:47:35;16.45;;;3.55;;
15312;SDS011;7757;52.626;4.746;2023-07-31T04:50:02;15.15;;;3.85;;
15312;SDS011;7757;52.626;4.746;2023-07-31T04:52:27;13.68;;;3.20;;
15312;SDS011;7757;52.626;4.746;2023-07-31T04:54:53;17.05;;;3.47;;
15312;SDS011;7757;52.626;4.746;2023-07-31T04:57:18;11.50;;;3.17;;
15312;SDS011;7757;52.626;4.746;2023-07-31T04:59:43;14.52;;;3.10;;
15312;SDS011;7757;52.626;4.746;2023-07-31T05:02:09;17.50;;;4.25;;
15312;SDS011;7757;52.626;4.746;2023-07-31T05:04:37;19.60;;;3.40;;
15312;SDS011;7757;52.626;4.746;2023-07-31T05:07:04;14.40;;;3.00;;
15312;SDS011;7757;52.626;4.746;2023-07-31T05:09:29;11.40;;;2.40;;
15312;SDS011;7757;52.626;4.746;2023-07-31T05:11:54;13.82;;;3.05;;
15312;SDS011;7757;52.626;4.746;2023-07-31T05:14:20;11.68;;;2.60;;
15312;SDS011;7757;52.626;4.746;2023-07-31T05:16:45;14.70;;;2.92;;
15312;SDS011;7757;52.626;4.746;2023-07-31T05:19:12;13.10;;;2.75;;
15312;SDS011;7757;52.626;4.746;2023-07-31T05:21:40;10.68;;;2.65;;
15312;SDS011;7757;52.626;4.746;2023-07-31T05:24:07;12.80;;;2.30;;
15312;SDS011;7757;52.626;4.746;2023-07-31T05:26:32;11.85;;;2.50;;
15312;SDS011;7757;52.626;4.746;2023-07-31T05:28:57;13.70;;;2.58;;
15312;SDS011;7757;52.626;4.746;2023-07-31T05:31:23;12.82;;;2.35;;
15312;SDS011;7757;52.626;4.746;2023-07-31T05:33:50;7.60;;;1.95;;
15312;SDS011;7757;52.626;4.746;2023-07-31T05:36:18;9.43;;;1.80;;
15312;SDS011;7757;52.626;4.746;2023-07-31T05:38:43;11.05;;;2.05;;
15312;SDS011;7757;52.626;4.746;2023-07-31T05:41:12;13.07;;;2.30;;
15312;SDS011;7757;52.626;4.746;2023-07-31T05:43:37;9.20;;;2.25;;
15312;SDS011;7757;52.626;4.746;2023-07-31T05:46:03;10.60;;;1.88;;
15312;SDS011;7757;52.626;4.746;2023-07-31T05:48:28;9.35;;;1.75;;
15312;SDS011;7757;52.626;4.746;2023-07-31T05:50:55;13.13;;;2.42;;
15312;SDS011;7757;52.626;4.746;2023-07-31T05:53:20;12.25;;;1.92;;
15312;SDS011;7757;52.626;4.746;2023-07-31T05:55:46;9.10;;;1.83;;
15312;SDS011;7757;52.626;4.746;2023-07-31T05:58:11;8.80;;;1.60;;
15312;SDS011;7757;52.626;4.746;2023-07-31T06:00:38;9.15;;;1.73;;
15312;SDS011;7757;52.626;4.746;2023-07-31T06:03:06;8.65;;;1.70;;
15312;SDS011;7757;52.626;4.746;2023-07-31T06:05:31;9.23;;;1.70;;
15312;SDS011;7757;52.626;4.746;2023-07-31T06:07:57;7.57;;;1.67;;
15312;SDS011;7757;52.626;4.746;2023-07-31T06:10:22;15.25;;;2.00;;
15312;SDS011;7757;52.626;4.746;2023-07-31T06:12:48;11.65;;;2.05;;
15312;SDS011;7757;52.626;4.746;2023-07-31T06:15:13;11.90;;;2.10;;
15312;SDS011;7757;52.626;4.746;2023-07-31T06:17:38;13.93;;;2.45;;
15312;SDS011;7757;52.626;4.746;2023-07-31T06:20:05;11.73;;;2.20;;
15312;SDS011;7757;52.626;4.746;2023-07-31T06:22:31;12.30;;;2.47;;
15312;SDS011;7757;52.626;4.746;2023-07-31T06:24:59;12.23;;;1.95;;
15312;SDS011;7757;52.626;4.746;2023-07-31T06:27:26;15.23;;;2.40;;
15312;SDS011;7757;52.626;4.746;2023-07-31T06:29:52;10.57;;;2.20;;
15312;SDS011;7757;52.626;4.746;2023-07-31T06:32:17;13.20;;;2.38;;
15312;SDS011;7757;52.626;4.746;2023-07-31T06:34:42;11.25;;;2.03;;
15312;SDS011;7757;52.626;4.746;2023-07-31T06:37:08;15.00;;;2.20;;
15312;SDS011;7757;52.626;4.746;2023-07-31T06:39:34;12.25;;;2.05;;
15312;SDS011;7757;52.626;4.746;2023-07-31T06:42:03;10.48;;;1.90;;
15312;SDS011;7757;52.626;4.746;2023-07-31T06:44:29;11.52;;;2.13;;
15312;SDS011;7757;52.626;4.746;2023-07-31T06:46:54;12.18;;;2.15;;
15312;SDS011;7757;52.626;4.746;2023-07-31T06:49:20;12.00;;;1.95;;
15312;SDS011;7757;52.626;4.746;2023-07-31T06:51:45;14.88;;;2.30;;
15312;SDS011;7757;52.626;4.746;2023-07-31T06:54:10;9.57;;;1.90;;
15312;SDS011;7757;52.626;4.746;2023-07-31T06:56:36;13.60;;;2.20;;
15312;SDS011;7757;52.626;4.746;2023-07-31T06:59:03;13.75;;;2.13;;
15312;SDS011;7757;52.626;4.746;2023-07-31T07:01:28;10.80;;;2.00;;
15312;SDS011;7757;52.626;4.746;2023-07-31T07:03:54;14.77;;;2.10;;
15312;SDS011;7757;52.626;4.746;2023-07-31T07:06:19;11.20;;;2.00;;
15312;SDS011;7757;52.626;4.746;2023-07-31T07:08:45;11.35;;;2.00;;
15312;SDS011;7757;52.626;4.746;2023-07-31T07:11:11;13.20;;;2.33;;
15312;SDS011;7757;52.626;4.746;2023-07-31T07:13:37;10.50;;;1.98;;
15312;SDS011;7757;52.626;4.746;2023-07-31T07:16:02;13.35;;;2.58;;
15312;SDS011;7757;52.626;4.746;2023-07-31T07:18:28;10.20;;;1.67;;
15312;SDS011;7757;52.626;4.746;2023-07-31T07:20:53;11.98;;;2.30;;
15312;SDS011;7757;52.626;4.746;2023-07-31T07:23:21;10.57;;;2.00;;
15312;SDS011;7757;52.626;4.746;2023-07-31T07:25:46;14.02;;;2.00;;
15312;SDS011;7757;52.626;4.746;2023-07-31T07:28:13;11.98;;;1.95;;
15312;SDS011;7757;52.626;4.746;2023-07-31T07:30:39;8.45;;;1.50;;
15312;SDS011;7757;52.626;4.746;2023-07-31T07:33:05;10.43;;;1.60;;
15312;SDS011;7757;52.626;4.746;2023-07-31T07:35:33;10.60;;;1.92;;
15312;SDS011;7757;52.626;4.746;2023-07-31T07:38:00;12.10;;;1.70;;
15312;SDS011;7757;52.626;4.746;2023-07-31T07:40:26;9.55;;;1.80;;
15312;SDS011;7757;52.626;4.746;2023-07-31T07:42:51;10.20;;;1.70;;
15312;SDS011;7757;52.626;4.746;2023-07-31T07:45:17;10.55;;;2.00;;
15312;SDS011;7757;52.626;4.746;2023-07-31T07:47:42;11.32;;;1.80;;
15312;SDS011;7757;52.626;4.746;2023-07-31T07:50:08;8.55;;;1.90;;
15312;SDS011;7757;52.626;4.746;2023-07-31T07:52:35;10.45;;;2.00;;
15312;SDS011;7757;52.626;4.746;2023-07-31T07:55:00;12.60;;;2.03;;
15312;SDS011;7757;52.626;4.746;2023-07-31T07:57:26;8.43;;;1.60;;
15312;SDS011;7757;52.626;4.746;2023-07-31T07:59:52;12.07;;;1.88;;
15312;SDS011;7757;52.626;4.746;2023-07-31T08:02:17;9.95;;;1.80;;
15312;SDS011;7757;52.626;4.746;2023-07-31T08:04:42;10.90;;;2.08;;
15312;SDS011;7757;52.626;4.746;2023-07-31T08:07:10;11.35;;;1.70;;
15312;SDS011;7757;52.626;4.746;2023-07-31T08:09:40;13.98;;;2.40;;
15312;SDS011;7757;52.626;4.746;2023-07-31T08:12:06;9.43;;;1.77;;
15312;SDS011;7757;52.626;4.746;2023-07-31T08:14:33;8.13;;;1.70;;
15312;SDS011;7757;52.626;4.746;2023-07-31T08:16:58;11.98;;;2.20;;
15312;SDS011;7757;52.626;4.746;2023-07-31T08:19:24;11.57;;;1.98;;
15312;SDS011;7757;52.626;4.746;2023-07-31T08:21:49;10.38;;;1.75;;
15312;SDS011;7757;52.626;4.746;2023-07-31T08:24:15;11.27;;;1.70;;
15312;SDS011;7757;52.626;4.746;2023-07-31T08:26:40;13.15;;;1.92;;
15312;SDS011;7757;52.626;4.746;2023-07-31T08:29:06;11.48;;;1.98;;
15312;SDS011;7757;52.626;4.746;2023-07-31T08:31:31;13.60;;;1.95;;
15312;SDS011;7757;52.626;4.746;2023-07-31T08:33:57;14.35;;;2.53;;
15312;SDS011;7757;52.626;4.746;2023-07-31T08:36:22;9.55;;;1.80;;
15312;SDS011;7757;52.626;4.746;2023-07-31T08:38:47;15.15;;;2.47;;
15312;SDS011;7757;52.626;4.746;2023-07-31T08:41:13;15.38;;;2.30;;
15312;SDS011;7757;52.626;4.746;2023-07-31T08:43:38;12.23;;;2.03;;
15312;SDS011;7757;52.626;4.746;2023-07-31T08:46:04;11.40;;;2.50;;
15312;SDS011;7757;52.626;4.746;2023-07-31T08:48:30;15.00;;;2.15;;
15312;SDS011;7757;52.626;4.746;2023-07-31T08:50:56;12.00;;;2.28;;
15312;SDS011;7757;52.626;4.746;2023-07-31T08:53:22;13.60;;;2.72;;
15312;SDS011;7757;52.626;4.746;2023-07-31T08:55:48;11.43;;;2.03;;
15312;SDS011;7757;52.626;4.746;2023-07-31T08:58:17;13.32;;;2.10;;
15312;SDS011;7757;52.626;4.746;2023-07-31T09:00:43;12.98;;;2.13;;
15312;SDS011;7757;52.626;4.746;2023-07-31T09:03:17;11.77;;;2.35;;
15312;SDS011;7757;52.626;4.746;2023-07-31T09:05:44;16.65;;;2.30;;
15312;SDS011;7757;52.626;4.746;2023-07-31T09:08:20;17.20;;;2.40;;
15312;SDS011;7757;52.626;4.746;2023-07-31T09:10:47;11.38;;;2.15;;
15312;SDS011;7757;52.626;4.746;2023-07-31T09:13:16;12.10;;;2.08;;
15312;SDS011;7757;52.626;4.746;2023-07-31T09:15:45;17.00;;;2.90;;
15312;SDS011;7757;52.626;4.746;2023-07-31T09:18:11;11.32;;;2.13;;
15312;SDS011;7757;52.626;4.746;2023-07-31T09:20:37;13.30;;;2.03;;
15312;SDS011;7757;52.626;4.746;2023-07-31T09:23:07;13.05;;;2.30;;
15312;SDS011;7757;52.626;4.746;2023-07-31T09:25:36;14.38;;;2.17;;
15312;SDS011;7757;52.626;4.746;2023-07-31T09:28:03;11.75;;;2.10;;
15312;SDS011;7757;52.626;4.746;2023-07-31T09:30:32;12.82;;;2.20;;
15312;SDS011;7757;52.626;4.746;2023-07-31T09:33:11;12.68;;;2.38;;
15312;SDS011;7757;52.626;4.746;2023-07-31T09:35:36;12.55;;;2.17;;
15312;SDS011;7757;52.626;4.746;2023-07-31T09:38:06;9.93;;;2.05;;
15312;SDS011;7757;52.626;4.746;2023-07-31T09:40:35;12.45;;;2.53;;
15312;SDS011;7757;52.626;4.746;2023-07-31T09:43:06;14.32;;;2.72;;
15312;SDS011;7757;52.626;4.746;2023-07-31T09:45:34;10.48;;;1.90;;
15312;SDS011;7757;52.626;4.746;2023-07-31T09:48:01;13.02;;;2.70;;
15312;SDS011;7757;52.626;4.746;2023-07-31T09:50:29;13.43;;;2.35;;
15312;SDS011;7757;52.626;4.746;2023-07-31T09:52:57;10.45;;;1.77;;
15312;SDS011;7757;52.626;4.746;2023-07-31T09:55:23;12.90;;;2.10;;
15312;SDS011;7757;52.626;4.746;2023-07-31T09:57:52;11.35;;;2.00;;
15312;SDS011;7757;52.626;4.746;2023-07-31T10:00:21;12.52;;;2.13;;
15312;SDS011;7757;52.626;4.746;2023-07-31T10:02:50;14.45;;;2.22;;
15312;SDS011;7757;52.626;4.746;2023-07-31T10:05:16;13.23;;;2.17;;
15312;SDS011;7757;52.626;4.746;2023-07-31T10:08:18;15.05;;;2.42;;
15312;SDS011;7757;52.626;4.746;2023-07-31T10:10:40;11.05;;;2.00;;
15312;SDS011;7757;52.626;4.746;2023-07-31T10:13:07;12.85;;;2.28;;
15312;SDS011;7757;52.626;4.746;2023-07-31T10:15:34;12.13;;;2.25;;
15312;SDS011;7757;52.626;4.746;2023-07-31T10:18:00;9.80;;;2.00;;
15312;SDS011;7757;52.626;4.746;2023-07-31T10:20:26;13.55;;;2.05;;
15312;SDS011;7757;52.626;4.746;2023-07-31T10:22:54;11.77;;;1.90;;
15312;SDS011;7757;52.626;4.746;2023-07-31T10:25:20;11.63;;;2.10;;
15312;SDS011;7757;52.626;4.746;2023-07-31T10:27:48;12.68;;;1.88;;
15312;SDS011;7757;52.626;4.746;2023-07-31T10:30:15;12.25;;;2.17;;
15312;SDS011;7757;52.626;4.746;2023-07-31T10:32:41;12.23;;;2.35;;
15312;SDS011;7757;52.626;4.746;2023-07-31T10:35:09;10.40;;;2.08;;
15312;SDS011;7757;52.626;4.746;2023-07-31T10:37:38;11.73;;;2.08;;
15312;SDS011;7757;52.626;4.746;2023-07-31T10:40:25;13.50;;;2.50;;
15312;SDS011;7757;52.626;4.746;2023-07-31T10:42:53;13.85;;;2.20;;
15312;SDS011;7757;52.626;4.746;2023-07-31T10:45:39;11.07;;;1.60;;
15312;SDS011;7757;52.626;4.746;2023-07-31T10:48:15;11.52;;;1.75;;
15312;SDS011;7757;52.626;4.746;2023-07-31T10:50:48;13.20;;;2.15;;
15312;SDS011;7757;52.626;4.746;2023-07-31T10:53:24;16.42;;;2.40;;
15312;SDS011;7757;52.626;4.746;2023-07-31T10:55:58;12.43;;;2.20;;
15312;SDS011;7757;52.626;4.746;2023-07-31T10:58:33;11.80;;;2.20;;
15312;SDS011;7757;52.626;4.746;2023-07-31T11:01:00;9.82;;;1.73;;
15312;SDS011;7757;52.626;4.746;2023-07-31T11:03:48;11.63;;;2.17;;
15312;SDS011;7757;52.626;4.746;2023-07-31T11:06:17;9.50;;;2.35;;
15312;SDS011;7757;52.626;4.746;2023-07-31T11:08:45;10.90;;;2.08;;
15312;SDS011;7757;52.626;4.746;2023-07-31T11:11:13;13.10;;;2.00;;
15312;SDS011;7757;52.626;4.746;2023-07-31T11:16:06;13.32;;;1.90;;
15312;SDS011;7757;52.626;4.746;2023-07-31T11:18:34;8.40;;;1.73;;
15312;SDS011;7757;52.626;4.746;2023-07-31T11:21:00;13.13;;;2.33;;
15312;SDS011;7757;52.626;4.746;2023-07-31T11:23:27;13.00;;;2.20;;
15312;SDS011;7757;52.626;4.746;2023-07-31T11:25:52;13.68;;;2.50;;
15312;SDS011;7757;52.626;4.746;2023-07-31T11:28:18;10.32;;;2.13;;
15312;SDS011;7757;52.626;4.746;2023-07-31T11:30:44;15.25;;;2.10;;
15312;SDS011;7757;52.626;4.746;2023-07-31T11:33:12;13.65;;;2.08;;
15312;SDS011;7757;52.626;4.746;2023-07-31T11:35:43;12.57;;;1.80;;
15312;SDS011;7757;52.626;4.746;2023-07-31T11:38:23;13.75;;;2.08;;
15312;SDS011;7757;52.626;4.746;2023-07-31T11:40:53;15.05;;;2.40;;
15312;SDS011;7757;52.626;4.746;2023-07-31T11:43:19;15.88;;;2.38;;
15312;SDS011;7757;52.626;4.746;2023-07-31T11:45:49;16.30;;;2.58;;
15312;SDS011;7757;52.626;4.746;2023-07-31T11:48:23;10.20;;;1.98;;
15312;SDS011;7757;52.626;4.746;2023-07-31T11:50:49;9.88;;;2.10;;
15312;SDS011;7757;52.626;4.746;2023-07-31T11:53:17;13.48;;;2.33;;
15312;SDS011;7757;52.626;4.746;2023-07-31T11:55:47;12.32;;;2.08;;
15312;SDS011;7757;52.626;4.746;2023-07-31T11:58:13;15.20;;;2.35;;
15312;SDS011;7757;52.626;4.746;2023-07-31T12:00:40;12.15;;;2.08;;
15312;SDS011;7757;52.626;4.746;2023-07-31T12:03:07;11.75;;;2.35;;
15312;SDS011;7757;52.626;4.746;2023-07-31T12:05:36;16.30;;;2.55;;
15312;SDS011;7757;52.626;4.746;2023-07-31T12:08:12;13.52;;;2.83;;
15312;SDS011;7757;52.626;4.746;2023-07-31T12:10:41;12.98;;;2.35;;
15312;SDS011;7757;52.626;4.746;2023-07-31T12:13:19;12.98;;;2.10;;
15312;SDS011;7757;52.626;4.746;2023-07-31T12:15:46;12.90;;;1.90;;
15312;SDS011;7757;52.626;4.746;2023-07-31T12:18:16;12.20;;;2.50;;
15312;SDS011;7757;52.626;4.746;2023-07-31T12:20:48;10.85;;;2.10;;
15312;SDS011;7757;52.626;4.746;2023-07-31T12:23:19;14.27;;;2.28;;
15312;SDS011;7757;52.626;4.746;2023-07-31T12:28:50;15.60;;;2.60;;
15312;SDS011;7757;52.626;4.746;2023-07-31T12:31:17;13.90;;;2.78;;
15312;SDS011;7757;52.626;4.746;2023-07-31T12:33:44;10.75;;;2.00;;
15312;SDS011;7757;52.626;4.746;2023-07-31T12:36:11;14.82;;;2.15;;
15312;SDS011;7757;52.626;4.746;2023-07-31T12:38:39;15.65;;;2.70;;
15312;SDS011;7757;52.626;4.746;2023-07-31T12:41:11;12.85;;;2.75;;
15312;SDS011;7757;52.626;4.746;2023-07-31T12:43:37;13.48;;;2.25;;
15312;SDS011;7757;52.626;4.746;2023-07-31T12:46:03;13.18;;;2.53;;
15312;SDS011;7757;52.626;4.746;2023-07-31T12:48:29;14.27;;;2.63;;
15312;SDS011;7757;52.626;4.746;2023-07-31T12:50:58;15.40;;;2.60;;
15312;SDS011;7757;52.626;4.746;2023-07-31T12:53:23;13.15;;;2.58;;
15312;SDS011;7757;52.626;4.746;2023-07-31T12:55:48;15.82;;;2.60;;
15312;SDS011;7757;52.626;4.746;2023-07-31T12:58:14;13.73;;;2.28;;
15312;SDS011;7757;52.626;4.746;2023-07-31T13:00:39;19.08;;;2.80;;
15312;SDS011;7757;52.626;4.746;2023-07-31T13:03:08;13.73;;;2.28;;
15312;SDS011;7757;52.626;4.746;2023-07-31T13:05:35;18.00;;;2.85;;
15312;SDS011;7757;52.626;4.746;2023-07-31T13:08:01;12.52;;;2.40;;
15312;SDS011;7757;52.626;4.746;2023-07-31T13:10:26;15.98;;;2.53;;
15312;SDS011;7757;52.626;4.746;2023-07-31T13:12:57;13.95;;;2.60;;
15312;SDS011;7757;52.626;4.746;2023-07-31T13:15:22;14.32;;;2.40;;
15312;SDS011;7757;52.626;4.746;2023-07-31T13:17:48;15.30;;;2.50;;
15312;SDS011;7757;52.626;4.746;2023-07-31T13:20:13;17.55;;;2.50;;
15312;SDS011;7757;52.626;4.746;2023-07-31T13:22:39;14.27;;;2.60;;
15312;SDS011;7757;52.626;4.746;2023-07-31T13:25:05;17.05;;;2.80;;
15312;SDS011;7757;52.626;4.746;2023-07-31T13:27:31;15.23;;;2.80;;
15312;SDS011;7757;52.626;4.746;2023-07-31T13:29:56;14.27;;;2.53;;
15312;SDS011;7757;52.626;4.746;2023-07-31T13:32:22;12.10;;;2.47;;
15312;SDS011;7757;52.626;4.746;2023-07-31T13:34:47;11.73;;;2.33;;
15312;SDS011;7757;52.626;4.746;2023-07-31T13:37:13;11.52;;;2.08;;
15312;SDS011;7757;52.626;4.746;2023-07-31T13:39:39;11.93;;;2.70;;
15312;SDS011;7757;52.626;4.746;2023-07-31T13:42:06;12.48;;;2.22;;
15312;SDS011;7757;52.626;4.746;2023-07-31T13:44:36;12.38;;;2.30;;
15312;SDS011;7757;52.626;4.746;2023-07-31T13:47:05;12.00;;;2.63;;
15312;SDS011;7757;52.626;4.746;2023-07-31T13:49:33;28.92;;;2.53;;
15312;SDS011;7757;52.626;4.746;2023-07-31T13:52:00;11.88;;;2.20;;
15312;SDS011;7757;52.626;4.746;2023-07-31T13:54:25;16.02;;;2.33;;
15312;SDS011;7757;52.626;4.746;2023-07-31T13:56:51;14.63;;;2.30;;
15312;SDS011;7757;52.626;4.746;2023-07-31T13:59:17;10.00;;;2.10;;
15312;SDS011;7757;52.626;4.746;2023-07-31T14:01:43;11.63;;;2.40;;
15312;SDS011;7757;52.626;4.746;2023-07-31T14:04:09;9.82;;;2.03;;
15312;SDS011;7757;52.626;4.746;2023-07-31T14:06:35;14.27;;;2.05;;
15312;SDS011;7757;52.626;4.746;2023-07-31T14:09:02;10.20;;;1.77;;
15312;SDS011;7757;52.626;4.746;2023-07-31T14:11:32;10.55;;;1.80;;
15312;SDS011;7757;52.626;4.746;2023-07-31T14:13:58;8.85;;;2.17;;
15312;SDS011;7757;52.626;4.746;2023-07-31T14:16:23;10.13;;;1.80;;
15312;SDS011;7757;52.626;4.746;2023-07-31T14:18:50;10.25;;;1.90;;
15312;SDS011;7757;52.626;4.746;2023-07-31T14:21:18;12.73;;;1.88;;
15312;SDS011;7757;52.626;4.746;2023-07-31T14:23:44;9.13;;;1.77;;
15312;SDS011;7757;52.626;4.746;2023-07-31T14:26:10;10.60;;;1.90;;
15312;SDS011;7757;52.626;4.746;2023-07-31T14:28:36;9.75;;;1.90;;
15312;SDS011;7757;52.626;4.746;2023-07-31T14:31:01;10.25;;;1.80;;
15312;SDS011;7757;52.626;4.746;2023-07-31T14:33:26;8.77;;;1.60;;
15312;SDS011;7757;52.626;4.746;2023-07-31T14:35:53;9.63;;;1.85;;
15312;SDS011;7757;52.626;4.746;2023-07-31T14:38:23;13.88;;;2.00;;
15312;SDS011;7757;52.626;4.746;2023-07-31T14:40:49;11.25;;;1.90;;
15312;SDS011;7757;52.626;4.746;2023-07-31T14:43:14;12.27;;;2.25;;
15312;SDS011;7757;52.626;4.746;2023-07-31T14:45:40;15.90;;;1.90;;
15312;SDS011;7757;52.626;4.746;2023-07-31T14:48:05;14.10;;;2.25;;
15312;SDS011;7757;52.626;4.746;2023-07-31T14:50:30;11.90;;;2.20;;
15312;SDS011;7757;52.626;4.746;2023-07-31T14:52:56;18.80;;;2.08;;
15312;SDS011;7757;52.626;4.746;2023-07-31T14:55:21;12.45;;;2.17;;
15312;SDS011;7757;52.626;4.746;2023-07-31T14:57:47;10.60;;;1.85;;
15312;SDS011;7757;52.626;4.746;2023-07-31T15:00:13;11.65;;;1.98;;
15312;SDS011;7757;52.626;4.746;2023-07-31T15:02:40;11.40;;;2.00;;